KEEO

Meeker Coulter Field Airport

Meeker, Colorado, USA
METAR KEEO 231053Z AUTO 00000KT 10SM BKN075 M09/M11 A3027 RMK AO2 SLP303 T10941111
Observed Flight Rules
Jan-23 @ 10:53 UTC (60 minutes ago) Visual Flight Rules
Wind Visibility Clouds
Calm 10 miles
  • Broken at 7,500' AGL
Temperatures Readings
Current -9°C / 16°F
Dewpoint -11°C / 12°F
Humidity 86%
Altimeter 30.27" Hg
Pressure 1030.3 hPa
Elevation 1930
METAR KEEO 231053Z AUTO 00000KT 10SM BKN075 M09/M11 A3027 RMK AO2 SLP303 T10941111
Observed Flight Rules
Jan-23 @ 10:53 UTC
(60 minutes ago)
VFR
Wind Visibility
Calm 10 miles
Clouds
  • Broken at 7,500' AGL
Temperature Dewpoint
-9°C / 16°F -11°C / 12°F
Humidity Altimeter Pressure
86% 30.27" Hg 1030.3 hPa